sensor_id;sensor_type;location;lat;lon;timestamp;temperature;humidity
7476;DHT22;3779;49.216;8.650;2023-07-29T00:00:18;24.50;77.70
7476;DHT22;3779;49.216;8.650;2023-07-29T00:03:05;24.50;77.80
7476;DHT22;3779;49.216;8.650;2023-07-29T00:05:51;24.50;77.40
7476;DHT22;3779;49.216;8.650;2023-07-29T00:08:37;24.60;77.60
7476;DHT22;3779;49.216;8.650;2023-07-29T00:11:23;24.60;77.60
7476;DHT22;3779;49.216;8.650;2023-07-29T00:14:09;24.60;77.70
7476;DHT22;3779;49.216;8.650;2023-07-29T00:16:54;24.60;77.80
7476;DHT22;3779;49.216;8.650;2023-07-29T00:19:40;24.60;77.70
7476;DHT22;3779;49.216;8.650;2023-07-29T00:22:26;24.60;77.80
7476;DHT22;3779;49.216;8.650;2023-07-29T00:25:12;24.60;77.80
7476;DHT22;3779;49.216;8.650;2023-07-29T00:27:58;24.60;77.70
7476;DHT22;3779;49.216;8.650;2023-07-29T00:30:44;24.50;77.60
7476;DHT22;3779;49.216;8.650;2023-07-29T00:33:30;24.60;77.70
7476;DHT22;3779;49.216;8.650;2023-07-29T00:36:16;24.60;77.80
7476;DHT22;3779;49.216;8.650;2023-07-29T00:39:02;24.60;77.60
7476;DHT22;3779;49.216;8.650;2023-07-29T00:41:48;24.50;77.80
7476;DHT22;3779;49.216;8.650;2023-07-29T00:44:34;24.60;77.60
7476;DHT22;3779;49.216;8.650;2023-07-29T00:47:20;24.60;77.90
7476;DHT22;3779;49.216;8.650;2023-07-29T00:50:10;24.50;78.00
7476;DHT22;3779;49.216;8.650;2023-07-29T00:52:57;24.60;77.90
7476;DHT22;3779;49.216;8.650;2023-07-29T00:55:43;24.60;77.60
7476;DHT22;3779;49.216;8.650;2023-07-29T00:58:29;24.60;77.70
7476;DHT22;3779;49.216;8.650;2023-07-29T01:01:15;24.60;77.40
7476;DHT22;3779;49.216;8.650;2023-07-29T02:20:22;24.50;75.30
7476;DHT22;3779;49.216;8.650;2023-07-29T02:26:26;24.50;75.20
7476;DHT22;3779;49.216;8.650;2023-07-29T02:29:13;24.50;75.20
7476;DHT22;3779;49.216;8.650;2023-07-29T02:34:49;24.50;75.50
7476;DHT22;3779;49.216;8.650;2023-07-29T02:37:37;24.50;75.70
7476;DHT22;3779;49.216;8.650;2023-07-29T02:40:45;24.50;75.80
7476;DHT22;3779;49.216;8.650;2023-07-29T02:43:31;24.50;75.80
7476;DHT22;3779;49.216;8.650;2023-07-29T02:46:22;24.50;75.90
7476;DHT22;3779;49.216;8.650;2023-07-29T02:49:08;24.50;75.90
7476;DHT22;3779;49.216;8.650;2023-07-29T02:51:54;24.50;76.10
7476;DHT22;3779;49.216;8.650;2023-07-29T02:54:46;24.50;76.10
7476;DHT22;3779;49.216;8.650;2023-07-29T02:57:54;24.50;76.00
7476;DHT22;3779;49.216;8.650;2023-07-29T03:01:02;24.50;76.30
7476;DHT22;3779;49.216;8.650;2023-07-29T03:03:49;24.50;76.50
7476;DHT22;3779;49.216;8.650;2023-07-29T03:09:32;24.50;76.50
7476;DHT22;3779;49.216;8.650;2023-07-29T03:15:17;24.50;76.80
7476;DHT22;3779;49.216;8.650;2023-07-29T03:18:03;24.50;76.50
7476;DHT22;3779;49.216;8.650;2023-07-29T03:20:56;24.50;76.60
7476;DHT22;3779;49.216;8.650;2023-07-29T03:23:44;24.50;76.70
7476;DHT22;3779;49.216;8.650;2023-07-29T08:30:54;24.80;86.00
7476;DHT22;3779;49.216;8.650;2023-07-29T08:33:40;24.80;86.80
7476;DHT22;3779;49.216;8.650;2023-07-29T08:36:28;24.80;86.60
7476;DHT22;3779;49.216;8.650;2023-07-29T08:39:39;24.90;86.40
7476;DHT22;3779;49.216;8.650;2023-07-29T08:42:31;24.90;85.80
7476;DHT22;3779;49.216;8.650;2023-07-29T08:45:38;24.80;86.00
7476;DHT22;3779;49.216;8.650;2023-07-29T08:48:42;24.90;86.10
7476;DHT22;3779;49.216;8.650;2023-07-29T08:51:31;24.90;87.20
7476;DHT22;3779;49.216;8.650;2023-07-29T08:54:26;24.90;86.60
7476;DHT22;3779;49.216;8.650;2023-07-29T08:57:15;24.90;86.70
7476;DHT22;3779;49.216;8.650;2023-07-29T09:00:02;24.90;87.00
7476;DHT22;3779;49.216;8.650;2023-07-29T09:02:53;24.90;87.30
7476;DHT22;3779;49.216;8.650;2023-07-29T09:05:39;24.90;88.30
7476;DHT22;3779;49.216;8.650;2023-07-29T09:08:34;24.90;88.80
7476;DHT22;3779;49.216;8.650;2023-07-29T09:11:36;24.90;90.00
7476;DHT22;3779;49.216;8.650;2023-07-29T09:14:24;24.90;89.20
7476;DHT22;3779;49.216;8.650;2023-07-29T10:31:55;25.30;85.00
7476;DHT22;3779;49.216;8.650;2023-07-29T10:34:48;25.20;85.70
7476;DHT22;3779;49.216;8.650;2023-07-29T10:37:38;25.30;85.10
7476;DHT22;3779;49.216;8.650;2023-07-29T10:40:49;25.30;85.00
7476;DHT22;3779;49.216;8.650;2023-07-29T10:58:42;25.30;85.30
7476;DHT22;3779;49.216;8.650;2023-07-29T11:01:31;25.30;85.70
7476;DHT22;3779;49.216;8.650;2023-07-29T11:04:28;25.30;86.00
7476;DHT22;3779;49.216;8.650;2023-07-29T11:10:16;25.30;85.70
7476;DHT22;3779;49.216;8.650;2023-07-29T15:09:36;25.40;74.60
7476;DHT22;3779;49.216;8.650;2023-07-29T15:12:22;25.40;73.80
7476;DHT22;3779;49.216;8.650;2023-07-29T15:15:09;25.50;74.00
7476;DHT22;3779;49.216;8.650;2023-07-29T15:17:55;25.50;73.90
7476;DHT22;3779;49.216;8.650;2023-07-29T15:20:44;25.50;73.50
7476;DHT22;3779;49.216;8.650;2023-07-29T15:23:30;25.60;73.50
7476;DHT22;3779;49.216;8.650;2023-07-29T15:26:16;25.40;73.60
7476;DHT22;3779;49.216;8.650;2023-07-29T15:29:03;25.40;74.40
7476;DHT22;3779;49.216;8.650;2023-07-29T15:31:58;25.30;73.80
7476;DHT22;3779;49.216;8.650;2023-07-29T15:34:36;25.30;74.10
7476;DHT22;3779;49.216;8.650;2023-07-29T15:46:26;25.50;74.20
7476;DHT22;3779;49.216;8.650;2023-07-29T16:04:03;25.50;73.40
7476;DHT22;3779;49.216;8.650;2023-07-29T16:06:49;25.50;72.20
7476;DHT22;3779;49.216;8.650;2023-07-29T20:04:32;25.20;82.50
7476;DHT22;3779;49.216;8.650;2023-07-29T20:10:18;25.20;82.60
7476;DHT22;3779;49.216;8.650;2023-07-29T20:28:17;25.10;82.30
7476;DHT22;3779;49.216;8.650;2023-07-29T20:31:16;25.10;82.30
7476;DHT22;3779;49.216;8.650;2023-07-29T20:34:02;25.10;82.30
7476;DHT22;3779;49.216;8.650;2023-07-29T20:36:48;25.10;82.00
7476;DHT22;3779;49.216;8.650;2023-07-29T20:39:34;25.10;82.20
7476;DHT22;3779;49.216;8.650;2023-07-29T20:53:44;25.10;82.40
7476;DHT22;3779;49.216;8.650;2023-07-29T23:23:07;25.10;85.20
7476;DHT22;3779;49.216;8.650;2023-07-29T23:35:08;25.10;85.20
7476;DHT22;3779;49.216;8.650;2023-07-29T23:47:44;25.10;86.30
7476;DHT22;3779;49.216;8.650;2023-07-29T23:50:30;25.10;86.20
7476;DHT22;3779;49.216;8.650;2023-07-29T23:56:18;25.10;86.30
7476;DHT22;3779;49.216;8.650;2023-07-29T23:59:06;25.10;86.20
